sensor_id;sensor_type;location;lat;lon;timestamp;temperature;humidity
25732;DHT22;13585;50.864;4.406;2023-03-01T00:01:00;15.00;57.20
25732;DHT22;13585;50.864;4.406;2023-03-01T00:03:25;15.00;57.20
25732;DHT22;13585;50.864;4.406;2023-03-01T00:05:51;15.00;57.20
25732;DHT22;13585;50.864;4.406;2023-03-01T00:08:17;15.00;57.10
25732;DHT22;13585;50.864;4.406;2023-03-01T00:10:42;15.00;57.10
25732;DHT22;13585;50.864;4.406;2023-03-01T00:13:08;15.10;57.20
25732;DHT22;13585;50.864;4.406;2023-03-01T00:15:38;15.00;57.10
25732;DHT22;13585;50.864;4.406;2023-03-01T00:18:04;15.00;57.10
25732;DHT22;13585;50.864;4.406;2023-03-01T00:20:30;15.00;57.10
25732;DHT22;13585;50.864;4.406;2023-03-01T00:22:55;15.00;57.00
25732;DHT22;13585;50.864;4.406;2023-03-01T00:25:21;15.00;57.00
25732;DHT22;13585;50.864;4.406;2023-03-01T00:27:47;15.00;57.00
25732;DHT22;13585;50.864;4.406;2023-03-01T00:30:14;15.00;57.00
25732;DHT22;13585;50.864;4.406;2023-03-01T00:32:40;15.00;56.90
25732;DHT22;13585;50.864;4.406;2023-03-01T00:35:06;15.00;56.90
25732;DHT22;13585;50.864;4.406;2023-03-01T00:37:31;15.00;56.90
25732;DHT22;13585;50.864;4.406;2023-03-01T00:39:57;15.00;56.90
25732;DHT22;13585;50.864;4.406;2023-03-01T00:42:22;15.00;56.90
25732;DHT22;13585;50.864;4.406;2023-03-01T00:44:48;15.00;56.90
25732;DHT22;13585;50.864;4.406;2023-03-01T00:47:14;15.00;56.90
25732;DHT22;13585;50.864;4.406;2023-03-01T00:49:39;15.00;56.80
25732;DHT22;13585;50.864;4.406;2023-03-01T00:52:05;15.00;56.80
25732;DHT22;13585;50.864;4.406;2023-03-01T00:54:31;14.90;56.80
25732;DHT22;13585;50.864;4.406;2023-03-01T00:56:57;14.90;56.70
25732;DHT22;13585;50.864;4.406;2023-03-01T00:59:23;15.00;56.80
25732;DHT22;13585;50.864;4.406;2023-03-01T01:01:48;14.90;56.70
25732;DHT22;13585;50.864;4.406;2023-03-01T01:04:14;15.00;56.80
25732;DHT22;13585;50.864;4.406;2023-03-01T01:06:43;14.90;56.70
25732;DHT22;13585;50.864;4.406;2023-03-01T01:09:11;14.90;56.60
25732;DHT22;13585;50.864;4.406;2023-03-01T01:11:46;14.90;56.60
25732;DHT22;13585;50.864;4.406;2023-03-01T01:14:13;14.90;56.60
25732;DHT22;13585;50.864;4.406;2023-03-01T01:16:39;14.90;56.70
25732;DHT22;13585;50.864;4.406;2023-03-01T01:19:05;14.90;56.60
25732;DHT22;13585;50.864;4.406;2023-03-01T01:21:32;14.90;56.60
25732;DHT22;13585;50.864;4.406;2023-03-01T01:23:57;14.90;56.60
25732;DHT22;13585;50.864;4.406;2023-03-01T01:26:28;14.90;56.60
25732;DHT22;13585;50.864;4.406;2023-03-01T01:28:54;14.90;56.50
25732;DHT22;13585;50.864;4.406;2023-03-01T01:31:20;14.90;56.50
25732;DHT22;13585;50.864;4.406;2023-03-01T01:33:49;14.90;56.50
25732;DHT22;13585;50.864;4.406;2023-03-01T01:36:15;14.90;56.50
25732;DHT22;13585;50.864;4.406;2023-03-01T01:38:41;14.90;56.50
25732;DHT22;13585;50.864;4.406;2023-03-01T01:41:08;14.90;56.50
25732;DHT22;13585;50.864;4.406;2023-03-01T01:43:39;14.90;56.50
25732;DHT22;13585;50.864;4.406;2023-03-01T01:46:30;14.80;56.50
25732;DHT22;13585;50.864;4.406;2023-03-01T01:49:02;14.90;56.60
25732;DHT22;13585;50.864;4.406;2023-03-01T01:51:32;14.90;56.50
25732;DHT22;13585;50.864;4.406;2023-03-01T01:54:13;14.90;56.50
25732;DHT22;13585;50.864;4.406;2023-03-01T01:56:42;14.90;56.40
25732;DHT22;13585;50.864;4.406;2023-03-01T01:59:10;14.80;56.40
25732;DHT22;13585;50.864;4.406;2023-03-01T02:01:35;14.90;56.40
25732;DHT22;13585;50.864;4.406;2023-03-01T02:04:01;14.80;56.40
25732;DHT22;13585;50.864;4.406;2023-03-01T02:06:34;14.90;56.30
25732;DHT22;13585;50.864;4.406;2023-03-01T02:09:06;14.80;56.30
25732;DHT22;13585;50.864;4.406;2023-03-01T02:11:33;14.80;56.30
25732;DHT22;13585;50.864;4.406;2023-03-01T02:13:59;14.80;56.30
25732;DHT22;13585;50.864;4.406;2023-03-01T02:16:26;14.80;56.30
25732;DHT22;13585;50.864;4.406;2023-03-01T02:18:52;14.80;56.30
25732;DHT22;13585;50.864;4.406;2023-03-01T02:24:11;14.80;56.30
25732;DHT22;13585;50.864;4.406;2023-03-01T02:26:48;14.80;56.20
25732;DHT22;13585;50.864;4.406;2023-03-01T02:29:15;14.80;56.10
25732;DHT22;13585;50.864;4.406;2023-03-01T02:31:41;14.80;56.20
25732;DHT22;13585;50.864;4.406;2023-03-01T02:34:11;14.80;56.20
25732;DHT22;13585;50.864;4.406;2023-03-01T02:36:47;14.80;56.20
25732;DHT22;13585;50.864;4.406;2023-03-01T02:39:37;14.80;56.10
25732;DHT22;13585;50.864;4.406;2023-03-01T02:42:10;14.80;56.20
25732;DHT22;13585;50.864;4.406;2023-03-01T02:44:36;14.80;56.10
25732;DHT22;13585;50.864;4.406;2023-03-01T02:47:03;14.80;56.10
25732;DHT22;13585;50.864;4.406;2023-03-01T02:49:31;14.80;56.10
25732;DHT22;13585;50.864;4.406;2023-03-01T02:55:02;14.80;56.00
25732;DHT22;13585;50.864;4.406;2023-03-01T02:57:31;14.70;55.90
25732;DHT22;13585;50.864;4.406;2023-03-01T02:59:59;14.80;56.00
25732;DHT22;13585;50.864;4.406;2023-03-01T03:02:29;14.70;56.00
25732;DHT22;13585;50.864;4.406;2023-03-01T03:05:19;14.70;55.90
25732;DHT22;13585;50.864;4.406;2023-03-01T03:07:47;14.70;55.90
25732;DHT22;13585;50.864;4.406;2023-03-01T03:10:20;14.70;55.90
25732;DHT22;13585;50.864;4.406;2023-03-01T03:12:54;14.70;55.80
25732;DHT22;13585;50.864;4.406;2023-03-01T03:15:21;14.70;55.90
25732;DHT22;13585;50.864;4.406;2023-03-01T03:17:47;14.70;55.90
25732;DHT22;13585;50.864;4.406;2023-03-01T03:20:16;14.70;55.80
25732;DHT22;13585;50.864;4.406;2023-03-01T03:22:45;14.70;55.80
25732;DHT22;13585;50.864;4.406;2023-03-01T03:25:12;14.70;55.80
25732;DHT22;13585;50.864;4.406;2023-03-01T03:27:39;14.70;55.80
25732;DHT22;13585;50.864;4.406;2023-03-01T03:30:06;14.70;55.80
25732;DHT22;13585;50.864;4.406;2023-03-01T03:32:37;14.70;55.80
25732;DHT22;13585;50.864;4.406;2023-03-01T03:35:04;14.70;55.70
25732;DHT22;13585;50.864;4.406;2023-03-01T03:37:37;14.60;55.70
25732;DHT22;13585;50.864;4.406;2023-03-01T03:40:21;14.70;55.70
25732;DHT22;13585;50.864;4.406;2023-03-01T03:42:47;14.60;55.70
25732;DHT22;13585;50.864;4.406;2023-03-01T03:45:13;14.70;55.80
25732;DHT22;13585;50.864;4.406;2023-03-01T03:47:39;14.60;55.70
25732;DHT22;13585;50.864;4.406;2023-03-01T03:50:05;14.60;55.70
25732;DHT22;13585;50.864;4.406;2023-03-01T03:52:30;14.60;55.70
25732;DHT22;13585;50.864;4.406;2023-03-01T03:54:56;14.60;55.70
25732;DHT22;13585;50.864;4.406;2023-03-01T03:57:22;14.60;55.70
25732;DHT22;13585;50.864;4.406;2023-03-01T03:59:47;14.60;55.70
25732;DHT22;13585;50.864;4.406;2023-03-01T04:02:13;14.60;55.70
25732;DHT22;13585;50.864;4.406;2023-03-01T04:04:50;14.60;55.70
25732;DHT22;13585;50.864;4.406;2023-03-01T04:07:16;14.60;55.60
25732;DHT22;13585;50.864;4.406;2023-03-01T04:09:42;14.60;55.60
25732;DHT22;13585;50.864;4.406;2023-03-01T04:12:09;14.60;55.60
25732;DHT22;13585;50.864;4.406;2023-03-01T04:14:35;14.60;55.70
25732;DHT22;13585;50.864;4.406;2023-03-01T04:17:00;14.60;55.60
25732;DHT22;13585;50.864;4.406;2023-03-01T04:19:26;14.60;55.50
25732;DHT22;13585;50.864;4.406;2023-03-01T04:21:52;14.60;55.60
25732;DHT22;13585;50.864;4.406;2023-03-01T04:24:18;14.60;55.50
25732;DHT22;13585;50.864;4.406;2023-03-01T04:26:44;14.60;55.50
25732;DHT22;13585;50.864;4.406;2023-03-01T04:29:09;14.60;55.50
25732;DHT22;13585;50.864;4.406;2023-03-01T04:31:35;14.60;55.50
25732;DHT22;13585;50.864;4.406;2023-03-01T04:34:01;14.60;55.40
25732;DHT22;13585;50.864;4.406;2023-03-01T04:36:29;14.60;55.40
25732;DHT22;13585;50.864;4.406;2023-03-01T04:38:55;14.60;55.40
25732;DHT22;13585;50.864;4.406;2023-03-01T04:41:22;14.60;55.40
25732;DHT22;13585;50.864;4.406;2023-03-01T04:43:48;14.60;55.40
25732;DHT22;13585;50.864;4.406;2023-03-01T04:46:17;14.60;55.40
25732;DHT22;13585;50.864;4.406;2023-03-01T04:48:44;14.60;55.40
25732;DHT22;13585;50.864;4.406;2023-03-01T04:51:10;14.60;55.30
25732;DHT22;13585;50.864;4.406;2023-03-01T04:53:38;14.60;55.30
25732;DHT22;13585;50.864;4.406;2023-03-01T04:56:04;14.60;55.30
25732;DHT22;13585;50.864;4.406;2023-03-01T04:58:30;14.60;55.30
25732;DHT22;13585;50.864;4.406;2023-03-01T05:00:56;14.60;55.30
25732;DHT22;13585;50.864;4.406;2023-03-01T05:03:22;14.50;55.20
25732;DHT22;13585;50.864;4.406;2023-03-01T05:05:49;14.50;55.20
25732;DHT22;13585;50.864;4.406;2023-03-01T05:08:16;14.60;55.30
25732;DHT22;13585;50.864;4.406;2023-03-01T05:10:49;14.50;55.20
25732;DHT22;13585;50.864;4.406;2023-03-01T05:13:15;14.50;55.20
25732;DHT22;13585;50.864;4.406;2023-03-01T05:15:53;14.50;55.20
25732;DHT22;13585;50.864;4.406;2023-03-01T05:18:19;14.60;55.20
25732;DHT22;13585;50.864;4.406;2023-03-01T05:20:45;14.60;55.10
25732;DHT22;13585;50.864;4.406;2023-03-01T05:23:10;14.50;55.00
25732;DHT22;13585;50.864;4.406;2023-03-01T05:25:36;14.50;54.90
25732;DHT22;13585;50.864;4.406;2023-03-01T05:28:06;14.60;54.80
25732;DHT22;13585;50.864;4.406;2023-03-01T05:30:33;14.50;54.70
25732;DHT22;13585;50.864;4.406;2023-03-01T05:32:59;14.50;54.60
25732;DHT22;13585;50.864;4.406;2023-03-01T05:35:26;14.50;54.60
25732;DHT22;13585;50.864;4.406;2023-03-01T05:37:52;14.50;54.40
25732;DHT22;13585;50.864;4.406;2023-03-01T05:40:20;14.50;54.40
25732;DHT22;13585;50.864;4.406;2023-03-01T05:42:48;14.50;54.30
25732;DHT22;13585;50.864;4.406;2023-03-01T05:45:14;14.50;54.20
25732;DHT22;13585;50.864;4.406;2023-03-01T05:47:42;14.50;54.10
25732;DHT22;13585;50.864;4.406;2023-03-01T05:50:12;14.50;54.70
25732;DHT22;13585;50.864;4.406;2023-03-01T05:52:37;14.60;54.10
25732;DHT22;13585;50.864;4.406;2023-03-01T05:55:03;14.60;54.10
25732;DHT22;13585;50.864;4.406;2023-03-01T05:57:29;14.60;54.10
25732;DHT22;13585;50.864;4.406;2023-03-01T05:59:55;14.60;54.10
25732;DHT22;13585;50.864;4.406;2023-03-01T06:02:20;14.60;54.00
25732;DHT22;13585;50.864;4.406;2023-03-01T06:04:46;14.70;54.00
25732;DHT22;13585;50.864;4.406;2023-03-01T06:07:11;14.60;53.90
25732;DHT22;13585;50.864;4.406;2023-03-01T06:09:37;14.60;53.90
25732;DHT22;13585;50.864;4.406;2023-03-01T06:12:03;14.60;53.90
25732;DHT22;13585;50.864;4.406;2023-03-01T06:14:29;14.60;53.90
25732;DHT22;13585;50.864;4.406;2023-03-01T06:16:54;14.60;53.90
25732;DHT22;13585;50.864;4.406;2023-03-01T06:19:20;14.60;53.80
25732;DHT22;13585;50.864;4.406;2023-03-01T06:21:45;14.60;53.80
25732;DHT22;13585;50.864;4.406;2023-03-01T06:24:11;14.60;53.80
25732;DHT22;13585;50.864;4.406;2023-03-01T06:26:36;14.60;53.80
25732;DHT22;13585;50.864;4.406;2023-03-01T06:29:02;14.60;53.90
25732;DHT22;13585;50.864;4.406;2023-03-01T06:31:28;14.60;53.90
25732;DHT22;13585;50.864;4.406;2023-03-01T06:33:54;14.70;54.00
25732;DHT22;13585;50.864;4.406;2023-03-01T06:36:19;14.70;54.00
25732;DHT22;13585;50.864;4.406;2023-03-01T06:38:46;14.70;54.10
25732;DHT22;13585;50.864;4.406;2023-03-01T06:41:12;14.70;54.10
25732;DHT22;13585;50.864;4.406;2023-03-01T06:43:37;14.70;54.20
25732;DHT22;13585;50.864;4.406;2023-03-01T06:46:04;14.70;54.20
25732;DHT22;13585;50.864;4.406;2023-03-01T06:48:30;14.70;54.20
25732;DHT22;13585;50.864;4.406;2023-03-01T06:50:58;14.70;54.30
25732;DHT22;13585;50.864;4.406;2023-03-01T06:53:26;14.70;54.30
25732;DHT22;13585;50.864;4.406;2023-03-01T06:55:56;14.70;54.30
25732;DHT22;13585;50.864;4.406;2023-03-01T06:58:22;14.70;54.30
25732;DHT22;13585;50.864;4.406;2023-03-01T07:00:48;14.70;54.30
25732;DHT22;13585;50.864;4.406;2023-03-01T07:03:14;14.70;54.40
25732;DHT22;13585;50.864;4.406;2023-03-01T07:05:39;14.70;54.40
25732;DHT22;13585;50.864;4.406;2023-03-01T07:08:05;14.80;55.10
25732;DHT22;13585;50.864;4.406;2023-03-01T07:10:31;14.70;54.40
25732;DHT22;13585;50.864;4.406;2023-03-01T07:12:58;14.80;54.50
25732;DHT22;13585;50.864;4.406;2023-03-01T07:15:24;14.80;55.10
25732;DHT22;13585;50.864;4.406;2023-03-01T07:17:51;14.80;54.50
25732;DHT22;13585;50.864;4.406;2023-03-01T07:20:18;14.80;54.50
25732;DHT22;13585;50.864;4.406;2023-03-01T07:22:49;14.80;54.60
25732;DHT22;13585;50.864;4.406;2023-03-01T07:25:25;14.80;54.60
25732;DHT22;13585;50.864;4.406;2023-03-01T07:27:52;14.80;55.20
25732;DHT22;13585;50.864;4.406;2023-03-01T07:30:18;14.80;54.70
25732;DHT22;13585;50.864;4.406;2023-03-01T07:32:43;14.80;54.70
25732;DHT22;13585;50.864;4.406;2023-03-01T07:35:10;14.80;54.70
25732;DHT22;13585;50.864;4.406;2023-03-01T07:37:36;14.80;54.70
25732;DHT22;13585;50.864;4.406;2023-03-01T07:40:02;14.80;54.70
25732;DHT22;13585;50.864;4.406;2023-03-01T07:42:28;14.80;54.80
25732;DHT22;13585;50.864;4.406;2023-03-01T07:44:53;14.80;54.70
25732;DHT22;13585;50.864;4.406;2023-03-01T07:47:19;14.80;54.80
25732;DHT22;13585;50.864;4.406;2023-03-01T07:49:44;14.80;54.70
25732;DHT22;13585;50.864;4.406;2023-03-01T07:52:11;14.80;54.70
25732;DHT22;13585;50.864;4.406;2023-03-01T07:54:37;14.80;54.70
25732;DHT22;13585;50.864;4.406;2023-03-01T07:57:03;14.80;54.70
25732;DHT22;13585;50.864;4.406;2023-03-01T07:59:28;14.80;54.70
25732;DHT22;13585;50.864;4.406;2023-03-01T08:01:56;14.70;54.60
25732;DHT22;13585;50.864;4.406;2023-03-01T08:04:22;14.80;54.60
25732;DHT22;13585;50.864;4.406;2023-03-01T08:06:50;14.80;54.60
25732;DHT22;13585;50.864;4.406;2023-03-01T08:09:16;14.80;54.60
25732;DHT22;13585;50.864;4.406;2023-03-01T08:11:42;14.70;54.50
25732;DHT22;13585;50.864;4.406;2023-03-01T08:14:07;14.80;54.50
25732;DHT22;13585;50.864;4.406;2023-03-01T08:16:33;14.70;54.50
25732;DHT22;13585;50.864;4.406;2023-03-01T08:19:08;14.70;54.40
25732;DHT22;13585;50.864;4.406;2023-03-01T08:21:34;14.80;54.40
25732;DHT22;13585;50.864;4.406;2023-03-01T08:24:05;14.80;54.40
25732;DHT22;13585;50.864;4.406;2023-03-01T08:26:36;14.70;54.30
25732;DHT22;13585;50.864;4.406;2023-03-01T08:29:02;14.80;54.40
25732;DHT22;13585;50.864;4.406;2023-03-01T08:31:35;14.80;54.20
25732;DHT22;13585;50.864;4.406;2023-03-01T08:34:12;14.80;54.30
25732;DHT22;13585;50.864;4.406;2023-03-01T08:36:40;14.70;54.10
25732;DHT22;13585;50.864;4.406;2023-03-01T08:39:09;14.70;54.10
25732;DHT22;13585;50.864;4.406;2023-03-01T08:41:35;14.70;54.00
25732;DHT22;13585;50.864;4.406;2023-03-01T08:44:03;14.70;54.00
25732;DHT22;13585;50.864;4.406;2023-03-01T08:46:31;14.70;54.00
25732;DHT22;13585;50.864;4.406;2023-03-01T08:48:56;14.70;53.90
25732;DHT22;13585;50.864;4.406;2023-03-01T08:51:23;14.70;53.90
25732;DHT22;13585;50.864;4.406;2023-03-01T08:53:49;14.70;54.00
25732;DHT22;13585;50.864;4.406;2023-03-01T08:56:15;14.70;53.90
25732;DHT22;13585;50.864;4.406;2023-03-01T08:58:44;14.70;53.80
25732;DHT22;13585;50.864;4.406;2023-03-01T09:01:13;14.70;53.80
25732;DHT22;13585;50.864;4.406;2023-03-01T09:03:39;14.70;53.70
25732;DHT22;13585;50.864;4.406;2023-03-01T09:06:06;14.70;53.70
25732;DHT22;13585;50.864;4.406;2023-03-01T09:08:35;14.60;53.60
25732;DHT22;13585;50.864;4.406;2023-03-01T09:11:02;14.70;53.60
25732;DHT22;13585;50.864;4.406;2023-03-01T09:13:29;14.60;53.50
25732;DHT22;13585;50.864;4.406;2023-03-01T09:15:57;14.70;53.60
25732;DHT22;13585;50.864;4.406;2023-03-01T09:18:23;14.70;53.50
25732;DHT22;13585;50.864;4.406;2023-03-01T09:20:48;14.60;53.50
25732;DHT22;13585;50.864;4.406;2023-03-01T09:23:14;14.70;53.50
25732;DHT22;13585;50.864;4.406;2023-03-01T09:25:40;14.60;53.40
25732;DHT22;13585;50.864;4.406;2023-03-01T09:28:06;14.60;53.40
25732;DHT22;13585;50.864;4.406;2023-03-01T09:30:31;14.60;53.40
25732;DHT22;13585;50.864;4.406;2023-03-01T09:32:57;14.60;53.30
25732;DHT22;13585;50.864;4.406;2023-03-01T09:35:23;14.60;53.30
25732;DHT22;13585;50.864;4.406;2023-03-01T09:37:49;14.60;53.30
25732;DHT22;13585;50.864;4.406;2023-03-01T09:40:18;14.60;53.30
25732;DHT22;13585;50.864;4.406;2023-03-01T09:43:01;14.60;53.30
25732;DHT22;13585;50.864;4.406;2023-03-01T09:45:41;14.60;53.30
25732;DHT22;13585;50.864;4.406;2023-03-01T09:48:16;14.60;53.80
25732;DHT22;13585;50.864;4.406;2023-03-01T09:50:44;14.60;53.30
25732;DHT22;13585;50.864;4.406;2023-03-01T09:53:16;14.60;53.30
25732;DHT22;13585;50.864;4.406;2023-03-01T09:55:55;14.60;53.20
25732;DHT22;13585;50.864;4.406;2023-03-01T10:01:00;14.60;53.40
25732;DHT22;13585;50.864;4.406;2023-03-01T10:03:44;14.60;53.30
25732;DHT22;13585;50.864;4.406;2023-03-01T10:06:19;14.60;53.30
25732;DHT22;13585;50.864;4.406;2023-03-01T10:09:00;14.60;53.30
25732;DHT22;13585;50.864;4.406;2023-03-01T10:11:31;14.60;53.30
25732;DHT22;13585;50.864;4.406;2023-03-01T10:17:27;14.60;53.30
25732;DHT22;13585;50.864;4.406;2023-03-01T10:22:42;14.70;53.30
25732;DHT22;13585;50.864;4.406;2023-03-01T10:25:14;14.60;53.20
25732;DHT22;13585;50.864;4.406;2023-03-01T10:28:05;14.60;53.30
25732;DHT22;13585;50.864;4.406;2023-03-01T10:30:36;14.60;53.40
25732;DHT22;13585;50.864;4.406;2023-03-01T10:33:29;14.60;53.20
25732;DHT22;13585;50.864;4.406;2023-03-01T10:35:55;14.60;53.30
25732;DHT22;13585;50.864;4.406;2023-03-01T10:38:21;14.60;53.20
25732;DHT22;13585;50.864;4.406;2023-03-01T10:40:58;14.60;53.80
25732;DHT22;13585;50.864;4.406;2023-03-01T10:43:40;14.60;53.30
25732;DHT22;13585;50.864;4.406;2023-03-01T10:46:30;14.60;53.20
25732;DHT22;13585;50.864;4.406;2023-03-01T10:51:39;14.70;53.20
25732;DHT22;13585;50.864;4.406;2023-03-01T10:54:14;14.70;53.20
25732;DHT22;13585;50.864;4.406;2023-03-01T10:56:51;14.70;53.20
25732;DHT22;13585;50.864;4.406;2023-03-01T10:59:30;14.70;53.20
25732;DHT22;13585;50.864;4.406;2023-03-01T11:04:35;14.70;53.20
25732;DHT22;13585;50.864;4.406;2023-03-01T11:07:01;14.70;53.20
25732;DHT22;13585;50.864;4.406;2023-03-01T11:09:32;14.80;53.30
25732;DHT22;13585;50.864;4.406;2023-03-01T11:12:11;14.80;53.30
25732;DHT22;13585;50.864;4.406;2023-03-01T11:14:38;14.70;53.30
25732;DHT22;13585;50.864;4.406;2023-03-01T11:17:31;14.80;53.40
25732;DHT22;13585;50.864;4.406;2023-03-01T11:22:49;14.80;53.80
25732;DHT22;13585;50.864;4.406;2023-03-01T11:25:17;14.80;54.00
25732;DHT22;13585;50.864;4.406;2023-03-01T11:27:45;14.80;54.20
25732;DHT22;13585;50.864;4.406;2023-03-01T11:30:34;14.80;54.40
25732;DHT22;13585;50.864;4.406;2023-03-01T11:33:35;14.80;54.70
25732;DHT22;13585;50.864;4.406;2023-03-01T11:36:06;14.90;55.00
25732;DHT22;13585;50.864;4.406;2023-03-01T11:38:37;14.90;55.10
25732;DHT22;13585;50.864;4.406;2023-03-01T11:41:19;14.90;55.40
25732;DHT22;13585;50.864;4.406;2023-03-01T11:44:08;14.90;55.70
25732;DHT22;13585;50.864;4.406;2023-03-01T11:55:58;15.00;56.40
25732;DHT22;13585;50.864;4.406;2023-03-01T11:58:34;15.00;56.60
25732;DHT22;13585;50.864;4.406;2023-03-01T12:06:40;15.00;57.10
25732;DHT22;13585;50.864;4.406;2023-03-01T12:12:34;15.10;57.20
25732;DHT22;13585;50.864;4.406;2023-03-01T12:26:35;15.10;57.70
25732;DHT22;13585;50.864;4.406;2023-03-01T12:29:24;15.20;57.90
25732;DHT22;13585;50.864;4.406;2023-03-01T12:32:15;15.20;57.90
25732;DHT22;13585;50.864;4.406;2023-03-01T12:35:14;15.20;58.00
25732;DHT22;13585;50.864;4.406;2023-03-01T12:38:17;15.20;58.00
25732;DHT22;13585;50.864;4.406;2023-03-01T12:43:36;15.30;58.10
25732;DHT22;13585;50.864;4.406;2023-03-01T12:51:17;15.30;58.30
25732;DHT22;13585;50.864;4.406;2023-03-01T12:53:48;15.30;58.30
25732;DHT22;13585;50.864;4.406;2023-03-01T12:56:27;15.30;58.30
25732;DHT22;13585;50.864;4.406;2023-03-01T12:59:28;15.30;58.30
25732;DHT22;13585;50.864;4.406;2023-03-01T13:02:24;15.30;58.40
25732;DHT22;13585;50.864;4.406;2023-03-01T13:04:58;15.40;58.30
25732;DHT22;13585;50.864;4.406;2023-03-01T13:10:26;15.40;58.40
25732;DHT22;13585;50.864;4.406;2023-03-01T13:18:00;15.50;58.30
25732;DHT22;13585;50.864;4.406;2023-03-01T13:23:25;15.50;58.40
25732;DHT22;13585;50.864;4.406;2023-03-01T13:33:49;15.70;58.30
25732;DHT22;13585;50.864;4.406;2023-03-01T13:46:57;15.80;58.10
25732;DHT22;13585;50.864;4.406;2023-03-01T13:49:28;15.90;58.00
25732;DHT22;13585;50.864;4.406;2023-03-01T13:51:54;15.90;58.00
25732;DHT22;13585;50.864;4.406;2023-03-01T13:54:31;16.00;58.00
25732;DHT22;13585;50.864;4.406;2023-03-01T13:56:59;15.80;57.80
25732;DHT22;13585;50.864;4.406;2023-03-01T13:59:25;16.00;57.90
25732;DHT22;13585;50.864;4.406;2023-03-01T14:01:58;16.00;57.80
25732;DHT22;13585;50.864;4.406;2023-03-01T14:04:25;16.00;57.80
25732;DHT22;13585;50.864;4.406;2023-03-01T14:07:08;16.00;57.80
25732;DHT22;13585;50.864;4.406;2023-03-01T14:09:37;16.10;57.80
25732;DHT22;13585;50.864;4.406;2023-03-01T14:12:20;16.10;57.80
25732;DHT22;13585;50.864;4.406;2023-03-01T14:20:12;16.10;57.70
25732;DHT22;13585;50.864;4.406;2023-03-01T14:22:41;16.10;57.70
25732;DHT22;13585;50.864;4.406;2023-03-01T14:27:56;16.00;57.80
25732;DHT22;13585;50.864;4.406;2023-03-01T14:30:25;16.00;57.80
25732;DHT22;13585;50.864;4.406;2023-03-01T14:32:59;16.00;57.80
25732;DHT22;13585;50.864;4.406;2023-03-01T14:35:30;16.00;57.90
25732;DHT22;13585;50.864;4.406;2023-03-01T14:37:57;16.00;57.90
25732;DHT22;13585;50.864;4.406;2023-03-01T14:40:35;16.00;58.50
25732;DHT22;13585;50.864;4.406;2023-03-01T14:43:08;15.90;57.90
25732;DHT22;13585;50.864;4.406;2023-03-01T14:45:35;16.00;57.90
25732;DHT22;13585;50.864;4.406;2023-03-01T14:48:03;15.90;57.90
25732;DHT22;13585;50.864;4.406;2023-03-01T14:50:32;16.00;57.90
25732;DHT22;13585;50.864;4.406;2023-03-01T14:53:06;15.90;57.90
25732;DHT22;13585;50.864;4.406;2023-03-01T14:55:40;15.90;57.90
25732;DHT22;13585;50.864;4.406;2023-03-01T14:58:13;15.90;57.80
25732;DHT22;13585;50.864;4.406;2023-03-01T15:00:43;15.90;57.90
25732;DHT22;13585;50.864;4.406;2023-03-01T15:03:17;15.90;57.90
25732;DHT22;13585;50.864;4.406;2023-03-01T15:05:48;15.90;57.90
25732;DHT22;13585;50.864;4.406;2023-03-01T15:08:34;15.90;57.90
25732;DHT22;13585;50.864;4.406;2023-03-01T15:11:17;15.90;57.90
25732;DHT22;13585;50.864;4.406;2023-03-01T15:13:44;15.90;57.80
25732;DHT22;13585;50.864;4.406;2023-03-01T15:16:17;15.80;57.70
25732;DHT22;13585;50.864;4.406;2023-03-01T15:18:49;15.90;57.80
25732;DHT22;13585;50.864;4.406;2023-03-01T15:21:18;15.80;57.70
25732;DHT22;13585;50.864;4.406;2023-03-01T15:23:54;15.80;57.70
25732;DHT22;13585;50.864;4.406;2023-03-01T15:26:33;15.90;57.70
25732;DHT22;13585;50.864;4.406;2023-03-01T15:29:00;15.80;57.70
25732;DHT22;13585;50.864;4.406;2023-03-01T15:31:36;15.80;57.60
25732;DHT22;13585;50.864;4.406;2023-03-01T15:36:42;15.80;57.60
25732;DHT22;13585;50.864;4.406;2023-03-01T15:41:56;15.80;57.60
25732;DHT22;13585;50.864;4.406;2023-03-01T15:44:28;15.80;57.50
25732;DHT22;13585;50.864;4.406;2023-03-01T15:46:54;15.80;57.50
25732;DHT22;13585;50.864;4.406;2023-03-01T15:49:36;15.80;57.50
25732;DHT22;13585;50.864;4.406;2023-03-01T15:52:03;15.80;57.50
25732;DHT22;13585;50.864;4.406;2023-03-01T15:54:29;15.80;57.40
25732;DHT22;13585;50.864;4.406;2023-03-01T15:56:55;15.80;57.40
25732;DHT22;13585;50.864;4.406;2023-03-01T15:59:21;15.80;57.40
25732;DHT22;13585;50.864;4.406;2023-03-01T16:01:48;15.80;57.40
25732;DHT22;13585;50.864;4.406;2023-03-01T16:04:17;15.80;57.30
25732;DHT22;13585;50.864;4.406;2023-03-01T16:06:51;15.80;57.30
25732;DHT22;13585;50.864;4.406;2023-03-01T16:09:23;15.80;57.30
25732;DHT22;13585;50.864;4.406;2023-03-01T16:11:49;15.80;57.30
25732;DHT22;13585;50.864;4.406;2023-03-01T16:14:15;15.80;57.20
25732;DHT22;13585;50.864;4.406;2023-03-01T16:16:42;15.80;57.20
25732;DHT22;13585;50.864;4.406;2023-03-01T16:19:07;15.80;57.20
25732;DHT22;13585;50.864;4.406;2023-03-01T16:21:33;15.80;57.20
25732;DHT22;13585;50.864;4.406;2023-03-01T16:23:59;15.80;57.10
25732;DHT22;13585;50.864;4.406;2023-03-01T16:26:24;15.80;57.10
25732;DHT22;13585;50.864;4.406;2023-03-01T16:28:54;15.80;57.10
25732;DHT22;13585;50.864;4.406;2023-03-01T16:31:21;15.80;57.10
25732;DHT22;13585;50.864;4.406;2023-03-01T16:33:47;15.70;57.00
25732;DHT22;13585;50.864;4.406;2023-03-01T16:36:16;15.80;57.00
25732;DHT22;13585;50.864;4.406;2023-03-01T16:38:42;15.90;57.00
25732;DHT22;13585;50.864;4.406;2023-03-01T16:41:16;15.90;57.10
25732;DHT22;13585;50.864;4.406;2023-03-01T16:43:43;15.70;57.00
25732;DHT22;13585;50.864;4.406;2023-03-01T16:46:17;15.70;56.90
25732;DHT22;13585;50.864;4.406;2023-03-01T16:48:44;15.70;57.00
25732;DHT22;13585;50.864;4.406;2023-03-01T16:51:11;15.60;56.90
25732;DHT22;13585;50.864;4.406;2023-03-01T16:53:37;15.70;57.00
25732;DHT22;13585;50.864;4.406;2023-03-01T16:56:07;15.70;57.00
25732;DHT22;13585;50.864;4.406;2023-03-01T16:58:37;15.70;57.00
25732;DHT22;13585;50.864;4.406;2023-03-01T17:01:12;15.70;57.00
25732;DHT22;13585;50.864;4.406;2023-03-01T17:03:38;15.70;57.00
25732;DHT22;13585;50.864;4.406;2023-03-01T17:06:10;15.70;57.10
25732;DHT22;13585;50.864;4.406;2023-03-01T17:08:37;15.60;57.10
25732;DHT22;13585;50.864;4.406;2023-03-01T17:11:15;15.70;57.10
25732;DHT22;13585;50.864;4.406;2023-03-01T17:13:44;15.70;57.30
25732;DHT22;13585;50.864;4.406;2023-03-01T17:16:12;15.70;57.30
25732;DHT22;13585;50.864;4.406;2023-03-01T17:18:39;15.60;57.20
25732;DHT22;13585;50.864;4.406;2023-03-01T17:21:05;15.60;57.30
25732;DHT22;13585;50.864;4.406;2023-03-01T17:23:35;15.60;57.30
25732;DHT22;13585;50.864;4.406;2023-03-01T17:26:01;15.60;57.30
25732;DHT22;13585;50.864;4.406;2023-03-01T17:28:29;15.60;57.30